HOURLY OBS INDEX

007

Murchison

32KM SOUTH OF JUNA DOWNS

Site: 007CWA
Alt: 850m
104km WNW of NEWMAN


  Time     Wind        Temp  DP   Baro     Rain since   Rain past  Vis(m), Cloud(base in m), Weather
  local        km/h                         9am  last   hr   10m    
Thu 07:00  ESE  6/ 11   3.2  1.7  1026.6    0.0   0.0   0.0   0.0   10000 
Thu 07:30  ESE  6/  7   4.7  2.7  1026.7    0.0   0.0   0.0   0.0   10000 
Thu 07:56    E  6/ 13   9.7  1.8  1026.7    0.0   0.0  ----   0.0   10000 
Thu 08:00    E  9/ 17  10.4  1.5  1026.8    0.0   0.0   0.0   0.0   10000 
Thu 08:30   NE  2/  6  10.7  2.0  1027.0    0.0   0.0   0.0   0.0   10000 
Thu 09:00    E 13/ 20  13.5  0.5  1027.1    0.0   0.0   0.0   0.0   10000 
Thu 09:30    E 19/ 26  14.5  0.0  1026.8    0.0   0.0   0.0   0.0   10000 
Thu 10:00    E 20/ 30  15.3 -0.1  1026.7    0.0   0.0   0.0   0.0   10000 
Thu 10:30    E 20/ 32  15.5 -1.5  1026.3    0.0   0.0   0.0   0.0   10000 
Thu 11:00    E 22/ 30  16.2 -1.8  1026.0    0.0   0.0   0.0   0.0   10000 
Thu 11:30    E 17/ 28  17.1 -2.0  1025.5    0.0   0.0   0.0   0.0   10000 
Thu 12:00  ESE 20/ 33  17.3 -2.9  1025.1    0.0   0.0   0.0   0.0   10000 

40KM EAST OF JUNA DOWNS

Site: 007BRY
Alt: 615m
96km NW of NEWMAN


  Time     Wind        Temp  DP   Baro     Rain since   Rain past  Vis(m), Cloud(base in m), Weather
  local        km/h                         9am  last   hr   10m    
Thu 07:00  ESE 11/ 15  10.0  0.3  1026.2    0.0   0.0   0.0   0.0   10000 
Thu 07:30  ESE 15/ 17  11.2  0.6  1026.5    0.0   0.0   0.0   0.0   10000 
Thu 08:00  ESE 19/ 28  12.7  0.5  1026.6    0.0   0.0   0.0   0.0   10000 
Thu 08:30  ESE 22/ 30  13.5 -0.2  1026.7    0.0   0.0   0.0   0.0   10000 
Thu 09:00  ESE 22/ 32  14.6 -0.3  1026.7    0.0   0.0   0.0   0.0   10000 
Thu 09:30  ESE 30/ 39  14.7 -0.2  1026.7    0.0   0.0   0.0   0.0   10000 
Thu 10:00  ESE 22/ 32  15.4  0.0  1026.6    0.0   0.0   0.0   0.0   10000 
Thu 10:30  ESE 22/ 32  15.5 -0.7  1026.3    0.0   0.0   0.0   0.0   10000 
Thu 11:00  ESE 22/ 33  16.7 -0.5  1025.9    0.0   0.0   0.0   0.0   10000 
Thu 11:30  ESE 20/ 30  17.5 -0.2  1025.3    0.0   0.0   0.0   0.0   10000 
Thu 12:00  ESE 20/ 30  17.1 -1.5  1024.9    0.0   0.0   0.0   0.0   10000 

DEGRUSSA COPPER MINE

Site: 007DGU
Alt: 475m
141km NNE of MEEKATHARRA


  Time     Wind        Temp  DP   Baro     Rain since   Rain past  Vis(m), Cloud(base in m), Weather
  local        km/h                         9am  last   hr   10m    
Thu 07:00  ESE 13/ 17   6.7  1.0  1027.7    0.0   0.0   0.0   0.0   10000 
Thu 07:30    E 15/ 19   7.8  1.0  1028.0    0.0   0.0   0.0   0.0   10000 
Thu 08:00    E 15/ 20   9.2  1.1  1028.0    0.0   0.0   0.0   0.0   10000 
Thu 08:30    E 17/ 24  10.9  1.2  1028.0    0.0   0.0   0.0   0.0   10000 
Thu 09:00    E 19/ 26  12.3  1.3  1028.5    0.0   0.0   0.0   0.0   10000 
Thu 09:30    E 17/ 24  13.4  1.4  1028.7    0.0   0.0   0.0   0.0   10000 
Thu 10:00    E 19/ 26  14.1  1.7  1028.4    0.0   0.0   0.0   0.0   10000 
Thu 10:30    E 20/ 32  15.0  1.5  1028.2    0.0   0.0   0.0   0.0   10000 
Thu 11:00    E 20/ 32  15.5  1.3  1027.8    0.0   0.0   0.0   0.0   10000 
Thu 11:30    E 17/ 26  16.2  1.5  1027.5    0.0   0.0   0.0   0.0   10000 
Thu 12:00  ESE 19/ 30  16.1  0.7  1027.1    0.0   0.0   0.0   0.0   10000 

MEEKATHARRA AIRPORT

Site: 007045
Alt: 517.0m
5km SE of MEEKATHARRA


  Time     Wind        Temp  DP   Baro     Rain since   Rain past  Vis(m), Cloud(base in m), Weather
  local        km/h                         9am  last   hr   10m    
Thu 07:00  ESE 15/ 19   6.6  0.9  1028.2    0.0   0.0   0.0   0.0   10000 
Thu 07:30    E 15/ 19   7.8  1.0  1028.6    0.0   0.0   0.0   0.0   10000 
Thu 08:00    E 13/ 17   9.3  1.0  1028.9    0.0   0.0   0.0   0.0   10000 
Thu 08:30    E 17/ 22  11.2  0.6  1029.0    0.0   0.0   0.0   0.0   10000 
Thu 09:00    E 15/ 20  12.5  1.2  1029.2    0.0   0.0   0.0   0.0   10000 
Thu 09:30  ENE 19/ 28  13.9  0.9  1029.3    0.0   0.0   0.0   0.0   10000 
Thu 10:00    E 17/ 20  15.3  0.7  1029.0    0.0   0.0   0.0   0.0   10000 
Thu 10:30    E 20/ 26  15.6  0.2  1028.7    0.0   0.0   0.0   0.0   10000 
Thu 11:00    E 17/ 26  16.9 -0.3  1028.3    0.0   0.0   0.0   0.0   10000 
Thu 11:30    E 17/ 26  17.0 -1.1  1027.9    0.0   0.0   0.0   0.0   10000 
Thu 12:00    E 17/ 28  17.6 -1.1  1027.3    0.0   0.0   0.0   0.0   10000 

MOUNT MAGNET AERO

Site: 007600
Alt: 407.0m
6km S of MOUNT MAGNET


  Time     Wind        Temp  DP   Baro     Rain since   Rain past  Vis(m), Cloud(base in m), Weather
  local        km/h                         9am  last   hr   10m    
Thu 07:00    N  7/  9   6.4  4.4  1029.1    0.0   0.0   0.0   0.0   ----- 
Thu 07:30    C  0/  0   6.7  5.0  1029.6    0.0   0.0   0.0   0.0   ----- 
Thu 08:00  ENE  6/  7   8.6  5.5  1029.7    0.0   0.0   0.0   0.0   ----- 
Thu 08:30  ENE  2/  7   9.4  5.2  1029.8    0.0   0.0   0.0   0.0   ----- 
Thu 09:00  ENE  7/ 11  10.7  5.0  1030.0    0.0   0.0   0.0   0.0   ----- 
Thu 09:30  ENE  7/ 13  12.2  6.3  1030.1    0.0   0.0   0.0   0.0   ----- 
Thu 10:00    E 11/ 15  13.3  6.4  1029.8    0.0   0.0   0.0   0.0   ----- 
Thu 10:30    E  9/ 13  14.3  5.9  1029.8    0.0   0.0   0.0   0.0   ----- 
Thu 11:00  ENE  7/ 13  15.6  6.3  1029.5    0.0   0.0   0.0   0.0   ----- 
Thu 11:30    E  6/  9  16.4  6.0  1029.0    0.0   0.0   0.0   0.0   ----- 
Thu 12:00    E  9/ 13  16.6  5.6  1028.5    0.0   0.0   0.0   0.0   ----- 

NEWMAN AERO

Site: 007176
Alt: 524.0m
10km SE of NEWMAN


  Time     Wind        Temp  DP   Baro     Rain since   Rain past  Vis(m), Cloud(base in m), Weather
  local        km/h                         9am  last   hr   10m    
Thu 07:00    S  7/  7   4.4  1.3  1026.5    0.0   0.0   0.0   0.0   10000 
Thu 07:30  SSW  6/  7   7.0  1.7  1026.8    0.0   0.0   0.0   0.0   10000 
Thu 08:00  ESE 11/ 17   9.7  1.4  1027.0    0.0   0.0   0.0   0.0   10000 
Thu 08:30    E 13/ 17  11.4  1.4  1026.9    0.0   0.0   0.0   0.0   10000 
Thu 09:00    E 15/ 22  13.2  0.3  1027.2    0.0   0.0   0.0   0.0   10000 
Thu 09:30    E 20/ 28  14.8 -0.1  1027.2    0.0   0.0   0.0   0.0   10000 
Thu 10:00    E 19/ 26  15.7 -0.5  1027.0    0.0   0.0   0.0   0.0   10000 
Thu 10:30  ESE 17/ 26  16.3 -0.4  1026.5    0.0   0.0   0.0   0.0   10000 
Thu 11:00    E 17/ 24  16.7 -1.4  1026.0    0.0   0.0   0.0   0.0   10000 
Thu 11:30    E 17/ 26  17.9 -2.4  1025.7    0.0   0.0   0.0   0.0   10000 
Thu 12:00    E 17/ 30  18.5 -1.9  1025.1    0.0   0.0   0.0   0.0   10000 

PARABURDOO AERO

Site: 007185
Alt: 423.7m
3km NNW of PARABURDOO


  Time     Wind        Temp  DP   Baro     Rain since   Rain past  Vis(m), Cloud(base in m), Weather
  local        km/h                         9am  last   hr   10m    
Thu 07:00  ENE 15/ 19   9.8  1.5  1024.9    0.0   0.0   0.0   0.0   10000 
Thu 07:30   NE 11/ 15  10.6  1.7  1025.4    0.0   0.0   0.0   0.0   10000 
Thu 08:00   NE  7/  9  12.4  2.0  1025.6    0.0   0.0   0.0   0.0   10000 
Thu 08:30    E 11/ 17  14.6  1.2  1025.5    0.0   0.0   0.0   0.0   10000 
Thu 09:00    E 19/ 24  15.9  0.9  1025.7    0.0   0.0   0.0   0.0   10000 
Thu 09:30    E 20/ 26  16.3  0.4  1025.6    0.0   0.0   0.0   0.0   10000 
Thu 10:00    E 19/ 24  17.5  1.1  1025.5    0.0   0.0   0.0   0.0   10000 
Thu 10:30    E 19/ 30  18.3  0.9  1025.2    0.0   0.0   0.0   0.0   10000 
Thu 11:00  ESE 26/ 32  18.9  0.0  1025.0    0.0   0.0   0.0   0.0   10000 
Thu 11:30    E 24/ 33  19.6 -0.9  1024.5    0.0   0.0   0.0   0.0   10000 
Thu 12:00    E 20/ 32  20.1 -0.5  1023.9    0.0   0.0   0.0   0.0   10000 

WEST ANGELAS MINE

Site: 007ANG
Alt: 685m
108km WNW of NEWMAN


  Time     Wind        Temp  DP   Baro     Rain since   Rain past  Vis(m), Cloud(base in m), Weather
  local        km/h                         9am  last   hr   10m    
Thu 07:00  ENE  9/ 11   7.0  0.2  1026.3    0.0   0.0   0.0   0.0   10000 
Thu 07:30    E  9/ 13   8.3  0.8  1026.4    0.0   0.0   0.0   0.0   10000 
Thu 08:00    E  9/ 15  10.6  1.2  ------    0.0   0.0   0.0   0.0   10000 
Thu 08:30    E 13/ 19  12.0  0.5  1026.8    0.0   0.0   0.0   0.0   10000 
Thu 09:00  ENE 17/ 26  13.6  0.6  1026.8    0.0   0.0   0.0   0.0   10000 
Thu 09:30  ENE 20/ 30  14.4 -0.1  1026.5    0.0   0.0   0.0   0.0   10000 
Thu 10:00    E 20/ 30  15.4 -0.4  1026.4    0.0   0.0   0.0   0.0   10000 
Thu 10:30    E 22/ 30  16.1 -1.0  1026.1    0.0   0.0   0.0   0.0   10000 
Thu 11:00    E 20/ 33  16.2 -1.8  1025.8    0.0   0.0   0.0   0.0   10000 
Thu 11:30    E 20/ 30  16.7 -1.4  1025.6    0.0   0.0   0.0   0.0   10000 
Thu 12:00    E 19/ 30  17.3 -1.9  1025.0    0.0   0.0   0.0   0.0   10000